Time;durP1;ratioP1;P1;durP2;ratioP2;P2;SDS_P1;SDS_P2;PMS_P1;PMS_P2;Temp;Humidity;BMP_temperature;BMP_pressure;BME280_temperature;BME280_humidity;BME280_pressure;Samples;Min_cycle;Max_cycle;Signal;HPM_P1;HPM_P2
2022/05/09 00:01:19;;;;;;;8.05;4.93;;;15.30;99.40;;;15.29;100.00;101246.25;4990586;28;20107;-73
2022/05/09 00:03:48;;;;;;;5.53;5.03;;;15.30;99.10;;;15.29;100.00;101253.34;4990338;28;20645;-74
2022/05/09 00:06:15;;;;;;;12.52;5.20;;;15.30;99.10;;;15.23;100.00;101242.91;4990040;28;20669;-74
2022/05/09 00:08:49;;;;;;;6.35;5.20;;;16.00;99.60;;;15.28;100.00;101255.13;4989334;28;20137;-76
2022/05/09 00:11:16;;;;;;;6.70;4.72;;;15.30;99.40;;;15.25;100.00;101249.94;4989620;28;20045;-76
2022/05/09 00:13:43;;;;;;;5.90;5.30;;;15.20;99.50;;;15.12;100.00;101254.69;4972365;28;20073;-74
2022/05/09 00:16:11;;;;;;;6.32;5.68;;;16.10;99.80;;;15.09;100.00;101256.59;4989283;28;20050;-73
2022/05/09 00:18:38;;;;;;;7.53;5.28;;;15.20;99.70;;;15.04;100.00;101259.38;4988439;28;20158;-73
2022/05/09 00:21:05;;;;;;;5.35;4.80;;;15.10;99.60;;;14.99;100.00;101253.34;4988937;28;20046;-74
2022/05/09 00:23:33;;;;;;;10.57;5.68;;;15.00;99.80;;;14.94;100.00;101261.41;4989537;28;20042;-74
2022/05/09 00:26:01;;;;;;;7.78;5.20;;;15.00;99.90;;;14.78;100.00;101254.81;4988068;28;20044;-73
2022/05/09 00:28:32;;;;;;;6.40;5.72;;;14.90;99.80;;;14.84;100.00;101257.28;4987317;28;20125;-73
2022/05/09 00:31:04;;;;;;;6.45;5.72;;;14.90;99.90;;;14.95;100.00;101247.25;4987670;28;20038;-74
2022/05/09 00:33:32;;;;;;;7.60;5.68;;;14.80;99.90;;;14.94;100.00;101248.16;4989164;28;20050;-74
2022/05/09 00:35:59;;;;;;;6.70;5.40;;;14.90;99.90;;;14.72;100.00;101255.84;4989679;28;20050;-74
2022/05/09 00:38:26;;;;;;;5.32;4.82;;;14.90;99.90;;;14.75;100.00;101247.78;5003986;28;20053;-74
2022/05/09 00:43:40;;;;;;;9.23;5.40;;;14.70;99.90;;;14.67;100.00;101268.28;5001035;28;20133;-74
2022/05/09 00:46:09;;;;;;;6.65;6.05;;;14.70;99.90;;;14.74;100.00;101262.81;4989578;28;20049;-73
2022/05/09 00:48:36;;;;;;;7.53;6.15;;;14.70;99.90;;;14.65;100.00;101262.16;5004152;28;20470;-74
2022/05/09 00:51:06;;;;;;;6.30;5.70;;;14.60;99.90;;;14.78;100.00;101257.44;4988945;28;20039;-74
2022/05/09 00:53:37;;;;;;;8.85;6.05;;;14.70;99.90;;;14.79;100.00;101267.97;5003947;28;20503;-73
2022/05/09 00:56:09;;;;;;;8.25;6.00;;;14.70;99.90;;;14.81;100.00;101263.50;5003950;28;20057;-73
2022/05/09 00:58:50;;;;;;;7.55;6.00;;;14.70;99.90;;;14.71;100.00;101260.25;5002920;28;20039;-73
2022/05/09 01:01:19;;;;;;;8.90;7.15;;;14.60;99.90;;;14.70;100.00;101268.22;4985060;28;20098;-73
2022/05/09 01:04:08;;;;;;;7.90;6.47;;;14.70;99.90;;;14.61;100.00;101264.03;4983723;28;20649;-73
2022/05/09 01:06:38;;;;;;;7.80;7.00;;;14.60;99.90;;;14.61;100.00;101264.03;4981391;28;20039;-74
2022/05/09 01:09:06;;;;;;;7.35;6.05;;;14.60;99.90;;;14.54;100.00;101263.34;4968441;28;20047;-76
2022/05/09 01:11:37;;;;;;;7.57;6.88;;;14.60;99.90;;;14.46;100.00;101266.19;4984450;28;20047;-75
2022/05/09 01:14:11;;;;;;;9.60;6.95;;;14.50;99.90;;;14.41;100.00;101267.22;4983531;28;20739;-73
2022/05/09 01:16:39;;;;;;;7.57;6.78;;;14.40;99.90;;;14.32;100.00;101257.72;4984161;28;20050;-75
2022/05/09 01:19:38;;;;;;;9.45;7.10;;;14.40;99.90;;;14.33;100.00;101262.09;4976750;28;20046;-75
2022/05/09 01:22:22;;;;;;;7.88;7.07;;;14.30;99.90;;;14.14;100.00;101254.63;5001756;28;20050;-75
2022/05/09 01:24:51;;;;;;;7.93;6.43;;;14.30;99.90;;;14.17;100.00;101251.91;4987716;28;20038;-74
2022/05/09 01:27:18;;;;;;;8.38;6.90;;;14.20;99.90;;;14.09;100.00;101258.28;4988129;28;20053;-73
2022/05/09 01:30:06;;;;;;;10.38;6.65;;;14.20;99.90;;;14.18;100.00;101253.63;5001313;28;20053;-74
2022/05/09 01:32:45;;;;;;;11.43;7.50;;;14.10;99.90;;;14.12;100.00;101258.22;5002635;28;20054;-74
2022/05/09 01:35:38;;;;;;;16.02;8.18;;;14.10;99.90;;;14.18;100.00;101248.34;4986693;28;20042;-74
2022/05/09 01:38:35;;;;;;;8.95;8.05;;;14.10;99.90;;;14.33;100.00;101252.38;4988247;28;20047;-73
2022/05/09 01:41:02;;;;;;;9.95;8.32;;;14.10;99.90;;;14.14;100.00;101261.69;4987466;28;20046;-72
2022/05/09 01:43:43;;;;;;;11.15;9.38;;;14.10;99.90;;;14.11;100.00;101270.56;5002521;28;20049;-74
2022/05/09 01:46:17;;;;;;;12.32;8.18;;;14.00;99.90;;;14.03;100.00;101265.47;5001536;28;20043;-73
2022/05/09 01:51:32;;;;;;;9.88;8.88;;;14.00;99.90;;;14.12;100.00;101264.34;4987776;28;20047;-73
2022/05/09 01:53:59;;;;;;;8.90;7.90;;;14.10;99.90;;;14.10;100.00;101258.25;4986031;28;20058;-73
2022/05/09 01:56:31;;;;;;;8.15;7.18;;;14.10;99.90;;;14.17;100.00;101267.78;4987902;28;20054;-72
2022/05/09 01:58:59;;;;;;;9.10;7.80;;;14.10;99.90;;;14.11;100.00;101270.56;4986328;28;20050;-74
2022/05/09 02:01:34;;;;;;;9.25;8.43;;;14.10;99.90;;;14.02;100.00;101269.00;4986930;28;20543;-74
2022/05/09 02:04:02;;;;;;;12.27;8.15;;;14.00;99.90;;;14.02;100.00;101271.66;4986850;28;20050;-74
2022/05/09 02:06:29;;;;;;;8.10;7.30;;;14.00;99.90;;;13.98;100.00;101271.78;4987600;28;20038;-72
2022/05/09 02:08:57;;;;;;;8.20;7.30;;;14.20;99.90;;;13.94;100.00;101278.03;4986921;28;20077;-74
2022/05/09 02:11:24;;;;;;;7.85;6.90;;;14.00;99.90;;;13.90;100.00;101271.97;4987125;28;20038;-74
2022/05/09 02:13:51;;;;;;;8.55;7.00;;;13.90;99.90;;;13.91;100.00;101276.34;4987546;28;20384;-73
2022/05/09 02:16:18;;;;;;;8.38;7.57;;;13.90;99.90;;;13.85;100.00;101276.47;4986011;28;20053;-74
2022/05/09 02:18:45;;;;;;;8.32;7.53;;;13.80;99.90;;;13.84;100.00;101272.09;4984380;28;20042;-73
2022/05/09 02:21:12;;;;;;;8.20;7.40;;;13.90;99.90;;;13.78;100.00;101270.47;4986114;28;20057;-74
2022/05/09 02:23:39;;;;;;;9.77;8.13;;;13.80;99.90;;;13.75;100.00;101268.78;4985546;28;20077;-72
2022/05/09 02:26:07;;;;;;;10.10;7.32;;;13.80;99.90;;;13.75;100.00;101273.19;4987442;28;20046;-74
2022/05/09 02:28:34;;;;;;;8.40;7.60;;;14.50;99.90;;;13.78;100.00;101270.47;4985390;28;20046;-74
2022/05/09 02:31:02;;;;;;;8.73;7.93;;;13.70;99.90;;;13.80;100.00;101273.09;4984814;28;20134;-74
2022/05/09 02:33:29;;;;;;;11.40;8.18;;;13.80;99.90;;;13.87;100.00;101272.03;4986685;28;20450;-74
2022/05/09 02:35:56;;;;;;;9.93;8.88;;;13.80;99.90;;;13.79;100.00;101269.56;4987341;28;20042;-74
2022/05/09 02:38:24;;;;;;;10.27;8.60;;;13.80;99.90;;;13.77;100.00;101270.50;4985476;28;20057;-73
2022/05/09 02:40:53;;;;;;;10.73;8.80;;;13.80;99.90;;;13.73;100.00;101275.84;4984593;28;20054;-74
2022/05/09 02:43:20;;;;;;;10.13;8.25;;;13.80;99.90;;;13.69;100.00;101281.25;4984437;28;20065;-73
2022/05/09 02:45:48;;;;;;;10.43;9.30;;;13.70;99.90;;;13.58;100.00;101278.84;4986291;28;20078;-73
2022/05/09 02:48:16;;;;;;;10.07;9.00;;;13.80;99.90;;;13.57;100.00;101282.38;4984658;28;20043;-74
2022/05/09 02:50:43;;;;;;;9.32;8.50;;;13.60;99.90;;;13.40;100.00;101280.94;4984867;28;20049;-74
2022/05/09 02:53:11;;;;;;;11.65;8.50;;;13.50;99.90;;;13.42;100.00;101280.94;4986777;28;20507;-72
2022/05/09 02:55:38;;;;;;;9.00;8.10;;;13.90;99.90;;;13.27;100.00;101290.91;4986904;28;20142;-73
2022/05/09 02:58:05;;;;;;;8.95;8.05;;;14.20;99.90;;;13.32;100.00;101289.03;4986953;28;20042;-73
2022/05/09 03:00:32;;;;;;;9.50;8.20;;;13.50;99.90;;;13.36;100.00;101283.72;4984621;28;20050;-74
2022/05/09 03:05:47;;;;;;;8.38;7.50;;;13.40;99.90;;;13.26;100.00;101286.53;4999736;28;20046;-74
2022/05/09 03:08:17;;;;;;;8.75;7.85;;;13.30;99.90;;;13.15;100.00;101292.03;5001581;28;20485;-74
2022/05/09 03:10:45;;;;;;;;;;;13.40;99.90;;;13.16;100.00;101285.84;4997569;28;20467;-73
2022/05/09 03:13:13;;;;;;;10.25;8.18;;;13.20;99.90;;;13.03;100.00;101287.88;4999303;28;20285;-74
2022/05/09 03:15:45;;;;;;;9.68;8.38;;;13.20;99.90;;;13.02;100.00;101287.91;4999278;28;20046;-73
2022/05/09 03:18:16;;;;;;;9.23;7.88;;;13.20;99.90;;;12.93;100.00;101280.13;4994124;28;20058;-74
2022/05/09 03:20:44;;;;;;;8.65;7.75;;;13.10;99.90;;;13.01;100.00;101284.38;4984269;28;20070;-74
2022/05/09 03:23:11;;;;;;;8.52;7.28;;;13.00;99.90;;;12.85;100.00;101289.09;4984957;28;20053;-72
2022/05/09 03:25:40;;;;;;;8.32;7.35;;;13.00;99.90;;;12.87;100.00;101282.00;4986772;28;20043;-74
2022/05/09 03:28:11;;;;;;;8.13;6.95;;;12.90;99.90;;;12.85;100.00;101283.81;4985680;28;20450;-74
2022/05/09 03:30:50;;;;;;;8.15;7.35;;;13.80;99.90;;;12.75;100.00;101283.13;5004118;28;20046;-74
2022/05/09 03:33:17;;;;;;;9.07;7.85;;;12.80;99.90;;;12.71;100.00;101277.91;4989940;28;20054;-74
2022/05/09 03:35:44;;;;;;;8.13;7.40;;;12.80;99.90;;;12.67;100.00;101285.00;5004610;28;20046;-73
2022/05/09 03:38:12;;;;;;;9.15;8.23;;;12.80;99.90;;;12.56;100.00;101287.84;5004417;28;20051;-74
2022/05/09 03:40:40;;;;;;;8.25;7.45;;;12.70;99.90;;;12.54;100.00;101288.75;5003831;28;20065;-74
2022/05/09 03:43:07;;;;;;;9.40;8.45;;;12.70;99.90;;;12.46;100.00;101292.41;4989848;28;20042;-74
2022/05/09 03:45:36;;;;;;;10.70;9.38;;;12.70;99.90;;;12.47;100.00;101291.53;5004567;28;20045;-74
2022/05/09 03:48:04;;;;;;;9.57;8.05;;;12.60;99.90;;;12.52;100.00;101286.16;4989853;28;20042;-75
2022/05/09 03:50:31;;;;;;;10.18;8.73;;;12.60;99.90;;;12.43;100.00;101286.31;4989292;28;20053;-73
2022/05/09 03:52:58;;;;;;;8.18;7.35;;;12.60;99.90;;;12.45;100.00;101289.78;4990080;28;20038;-74
2022/05/09 03:55:25;;;;;;;9.60;8.70;;;12.50;99.90;;;12.39;100.00;101282.84;4989916;28;20118;-74
2022/05/09 03:57:55;;;;;;;9.38;8.30;;;12.50;99.90;;;12.35;100.00;101289.09;4989844;28;20043;-73
2022/05/09 04:00:26;;;;;;;10.48;9.25;;;12.50;99.90;;;12.44;100.00;101296.84;5003286;28;20653;-74
2022/05/09 04:02:54;;;;;;;10.10;9.10;;;12.50;99.90;;;12.41;100.00;101296.91;5002619;28;20075;-74
2022/05/09 04:05:22;;;;;;;9.60;8.60;;;12.70;99.90;;;12.33;100.00;101293.53;5004305;28;20039;-74
2022/05/09 04:07:51;;;;;;;10.88;9.00;;;12.50;99.90;;;12.27;100.00;101286.56;5004481;28;20101;-73
2022/05/09 04:10:23;;;;;;;11.02;9.35;;;12.40;99.90;;;12.32;100.00;101302.34;4987565;28;20054;-74
2022/05/09 04:12:51;;;;;;;9.73;8.73;;;12.40;99.90;;;12.35;100.00;101299.63;5011594;28;20038;-74
2022/05/09 04:18:06;;;;;;;9.85;8.95;;;12.40;99.90;;;12.34;100.00;101303.19;4988206;28;20080;-76
2022/05/09 04:20:34;;;;;;;10.02;8.43;;;12.40;99.90;;;12.29;100.00;101305.88;4987678;28;20659;-76
2022/05/09 04:23:01;;;;;;;10.00;8.75;;;12.40;99.90;;;12.34;100.00;101305.81;4989553;28;20041;-75
2022/05/09 04:25:31;;;;;;;9.50;8.05;;;13.20;99.90;;;12.28;100.00;101312.06;4988875;28;20057;-77
2022/05/09 04:28:06;;;;;;;10.45;8.38;;;12.40;99.90;;;12.30;100.00;101314.69;4990234;28;20129;-75
2022/05/09 04:30:36;;;;;;;9.90;8.90;;;12.40;99.90;;;12.34;100.00;101316.38;5003572;28;20046;-75
2022/05/09 04:33:06;;;;;;;11.87;9.40;;;12.40;99.90;;;12.45;100.00;101313.56;5005597;28;20049;-74
2022/05/09 04:35:35;;;;;;;10.50;9.40;;;12.40;99.90;;;12.49;100.00;101315.25;4991677;28;20295;-74
2022/05/09 04:38:06;;;;;;;12.57;9.73;;;12.50;99.90;;;12.51;100.00;101304.66;5001998;28;20102;-72
2022/05/09 04:40:36;;;;;;;10.95;9.95;;;12.50;99.90;;;12.53;100.00;101310.78;4994422;28;20478;-75
2022/05/09 04:43:06;;;;;;;10.55;9.05;;;12.50;99.90;;;12.62;100.00;101306.22;4993141;28;20078;-75
2022/05/09 04:45:34;;;;;;;11.85;9.30;;;12.50;99.90;;;12.47;100.00;101315.28;4997134;28;20046;-74
2022/05/09 04:48:05;;;;;;;10.30;9.15;;;12.60;99.90;;;12.53;100.00;101314.31;4993694;28;20122;-76
2022/05/09 04:50:34;;;;;;;13.20;9.98;;;12.60;99.90;;;12.54;100.00;101316.03;4976480;28;20199;-75
2022/05/09 04:53:05;;;;;;;11.65;10.43;;;12.60;99.90;;;12.58;100.00;101324.78;4997015;28;20505;-75
2022/05/09 04:55:34;;;;;;;11.63;10.45;;;12.60;99.90;;;12.63;100.00;101326.44;4978414;28;20042;-75
2022/05/09 04:58:04;;;;;;;12.60;9.60;;;12.60;99.90;;;12.74;100.00;101323.63;4988546;28;20400;-76
2022/05/09 05:00:32;;;;;;;11.02;9.73;;;12.70;99.90;;;12.89;100.00;101330.38;4991399;28;20051;-74
2022/05/09 05:02:59;;;;;;;10.60;9.10;;;12.70;99.90;;;13.05;100.00;101332.75;5002556;28;20057;-76
2022/05/09 05:05:26;;;;;;;12.52;10.60;;;12.80;99.90;;;13.08;100.00;101334.47;4986502;28;20039;-76
2022/05/09 05:07:54;;;;;;;14.57;10.73;;;12.90;99.90;;;13.20;100.00;101331.59;5003002;28;20574;-76
2022/05/09 05:10:27;;;;;;;15.10;10.07;;;13.00;99.90;;;13.32;100.00;101335.75;5001073;28;20054;-75
2022/05/09 05:12:56;;;;;;;12.02;10.82;;;13.10;99.90;;;13.27;100.00;101338.47;5002554;28;20031;-77
2022/05/09 05:15:24;;;;;;;11.13;9.88;;;13.10;99.90;;;13.33;100.00;101338.34;4986786;28;20051;-76
2022/05/09 05:17:52;;;;;;;14.77;10.40;;;13.60;99.90;;;13.39;100.00;101337.34;4971029;28;20043;-76
2022/05/09 05:20:19;;;;;;;10.98;9.85;;;13.30;99.90;;;13.48;100.00;101336.34;5002673;28;20138;-76
2022/05/09 05:22:49;;;;;;;12.88;10.25;;;13.30;99.90;;;13.47;100.00;101332.84;5003342;28;20050;-76
2022/05/09 05:25:20;;;;;;;11.63;10.03;;;13.40;99.90;;;13.66;100.00;101344.78;4949720;28;20055;-75
2022/05/09 05:27:48;;;;;;;13.05;10.95;;;13.40;99.90;;;13.70;100.00;101346.47;4966206;28;20746;-76
2022/05/09 05:30:16;;;;;;;11.63;10.38;;;13.50;99.90;;;13.76;100.00;101346.31;4949921;28;20055;-76
2022/05/09 05:32:44;;;;;;;12.93;10.27;;;13.60;99.90;;;13.87;100.00;101348.72;4966052;28;20046;-76
2022/05/09 05:35:16;;;;;;;14.35;11.30;;;13.60;99.90;;;13.91;100.00;101353.06;4965920;28;20062;-76
2022/05/09 05:37:44;;;;;;;16.42;11.40;;;13.70;99.90;;;13.95;100.00;101348.56;4965697;28;20050;-75
2022/05/09 05:40:13;;;;;;;12.93;10.10;;;13.80;99.90;;;14.04;100.00;101348.38;4965341;28;20138;-76
2022/05/09 05:42:44;;;;;;;13.48;11.07;;;13.80;99.90;;;14.11;100.00;101349.09;4965664;28;20074;-76
2022/05/09 05:45:14;;;;;;;12.70;10.70;;;13.80;99.90;;;14.16;100.00;101348.09;4965530;28;20435;-75
2022/05/09 05:47:41;;;;;;;12.32;10.80;;;13.90;99.90;;;14.21;100.00;101353.28;4965829;28;20054;-76
2022/05/09 05:50:12;;;;;;;12.63;10.90;;;14.00;99.90;;;14.28;100.00;101357.50;4965690;28;20086;-75
2022/05/09 05:52:40;;;;;;;15.30;11.80;;;14.00;99.90;;;14.37;100.00;101358.22;4965341;28;20099;-76
2022/05/09 05:55:09;;;;;;;13.30;11.63;;;14.40;99.90;;;14.41;100.00;101359.88;4966069;28;20555;-75
2022/05/09 05:57:39;;;;;;;13.02;11.73;;;14.20;99.90;;;14.53;100.00;101369.28;4986492;28;20042;-75
2022/05/09 06:00:18;;;;;;;;;;;14.30;99.90;;;14.57;100.00;101360.34;4987368;28;20763;-76
2022/05/09 06:02:46;;;;;;;13.07;10.43;;;14.30;99.90;;;14.60;100.00;101362.94;5002941;28;19925;-75
2022/05/09 06:05:15;;;;;;;13.20;9.57;;;14.50;99.90;;;14.67;100.00;101359.22;5002795;28;20050;-75
2022/05/09 06:07:43;;;;;;;14.30;9.82;;;14.40;99.90;;;14.69;100.00;101356.53;4987800;28;20042;-76
2022/05/09 06:10:12;;;;;;;11.85;9.52;;;15.00;99.90;;;14.77;100.00;101359.88;5002379;28;20504;-75
2022/05/09 06:12:40;;;;;;;13.52;9.88;;;14.50;99.90;;;14.83;100.00;101357.09;5002239;28;20083;-76
2022/05/09 06:17:56;;;;;;;12.73;9.88;;;14.60;99.90;;;14.95;100.00;101358.53;4987196;28;20057;-75
2022/05/09 06:20:24;;;;;;;10.37;9.27;;;14.70;99.90;;;15.04;100.00;101354.78;4986074;28;20514;-76
2022/05/09 06:22:54;;;;;;;10.15;9.13;;;14.80;99.90;;;15.12;100.00;101359.88;4970362;28;20292;-76
2022/05/09 06:25:22;;;;;;;14.27;9.43;;;14.90;99.90;;;15.17;100.00;101369.44;4970184;28;20057;-76
2022/05/09 06:27:49;;;;;;;13.30;10.00;;;14.90;99.90;;;15.24;100.00;101367.50;4986196;28;20050;-76
2022/05/09 06:30:19;;;;;;;9.93;8.50;;;14.90;99.90;;;15.27;100.00;101370.03;4987047;28;20053;-76
2022/05/09 06:32:47;;;;;;;16.73;9.90;;;15.00;99.90;;;15.33;100.00;101369.00;5002679;28;20498;-76
2022/05/09 06:35:20;;;;;;;13.18;10.10;;;15.00;99.90;;;15.42;100.00;101363.44;5001730;28;20455;-77
2022/05/09 06:38:10;;;;;;;10.43;8.13;;;15.10;99.90;;;15.55;100.00;101365.75;5002033;28;20042;-76
2022/05/09 06:40:38;;;;;;;8.88;7.90;;;15.20;99.90;;;15.64;100.00;101361.94;4987076;28;20038;-75
2022/05/09 06:43:08;;;;;;;10.50;8.57;;;15.30;99.90;;;15.67;100.00;101360.06;5002502;28;20697;-76
2022/05/09 06:45:39;;;;;;;10.50;7.75;;;15.30;99.90;;;15.74;100.00;101355.47;4985500;28;20137;-76
2022/05/09 06:48:09;;;;;;;9.45;7.43;;;15.40;99.90;;;15.87;100.00;101363.91;4986201;28;20047;-77
2022/05/09 06:50:39;;;;;;;9.80;7.35;;;15.50;99.90;;;15.93;100.00;101362.88;5002680;28;20520;-77
2022/05/09 06:53:07;;;;;;;10.57;6.88;;;15.60;99.90;;;16.04;100.00;101359.91;5003181;28;20691;-76
2022/05/09 06:55:45;;;;;;;10.80;6.75;;;15.70;99.90;;;16.13;100.00;101354.31;5002258;28;20053;-76
2022/05/09 06:58:21;;;;;;;7.85;7.00;;;15.70;99.90;;;16.15;100.00;101355.97;5003830;28;20434;-76
2022/05/09 07:00:50;;;;;;;8.55;6.45;;;15.90;99.90;;;16.22;100.00;101355.81;5002541;28;20414;-76
2022/05/09 07:03:20;;;;;;;8.02;6.25;;;15.90;99.90;;;16.25;100.00;101351.28;4988394;28;20065;-76
2022/05/09 07:05:49;;;;;;;7.82;6.18;;;15.90;99.90;;;16.33;100.00;101344.84;4990232;28;20096;-77
2022/05/09 07:08:17;;;;;;;7.55;6.22;;;15.90;99.90;;;16.45;100.00;101355.06;5006851;28;20100;-76
2022/05/09 07:10:46;;;;;;;7.28;5.90;;;16.10;99.90;;;16.52;100.00;101351.25;5006417;28;20038;-76
2022/05/09 07:13:34;;;;;;;8.23;6.00;;;16.20;99.90;;;16.57;100.00;101359.09;4992293;28;20049;-76
2022/05/09 07:16:01;;;;;;;9.73;6.82;;;16.20;99.80;;;16.64;100.00;101363.28;5006968;28;20129;-77
2022/05/09 07:18:28;;;;;;;7.55;5.93;;;16.30;99.70;;;16.68;100.00;101361.38;5007317;28;20074;-76
2022/05/09 07:20:56;;;;;;;9.48;6.38;;;16.80;99.60;;;16.75;100.00;101362.03;5006789;28;20038;-76
2022/05/09 07:23:24;;;;;;;6.50;5.32;;;16.40;99.40;;;16.82;100.00;101368.91;5006880;28;20154;-77
2022/05/09 07:25:52;;;;;;;11.52;6.78;;;16.50;99.30;;;16.89;100.00;101364.25;4993265;28;20102;-77
2022/05/09 07:28:21;;;;;;;7.50;6.07;;;16.70;99.30;;;16.97;100.00;101362.16;4991715;28;20492;-76
2022/05/09 07:30:49;;;;;;;7.07;5.78;;;16.60;99.30;;;17.05;100.00;101365.47;4990849;28;20129;-78
2022/05/09 07:33:18;;;;;;;11.52;6.40;;;17.10;99.40;;;17.11;100.00;101361.72;4992415;28;20161;-78
2022/05/09 07:35:47;;;;;;;9.32;5.93;;;16.70;99.20;;;17.21;100.00;101365.78;4990700;28;20061;-78
2022/05/09 07:38:14;;;;;;;7.50;5.95;;;16.90;99.40;;;17.29;100.00;101369.03;5006751;28;20046;-78
2022/05/09 07:40:43;;;;;;;8.65;6.35;;;16.90;99.20;;;17.41;100.00;101364.22;4990085;28;20042;-74
2022/05/09 07:43:15;;;;;;;10.60;6.38;;;17.30;99.30;;;17.56;100.00;101370.72;5004991;28;20056;-76
2022/05/09 07:45:43;;;;;;;8.57;5.80;;;17.10;98.90;;;17.64;100.00;101370.44;5004903;28;20088;-76
2022/05/09 07:48:11;;;;;;;9.23;6.72;;;17.20;98.70;;;17.68;100.00;101367.63;4990187;28;20053;-76
2022/05/09 07:50:40;;;;;;;7.93;6.00;;;17.30;98.50;;;17.79;100.00;101369.88;4988806;28;20168;-77
2022/05/09 07:53:15;;;;;;;7.13;6.30;;;17.40;98.40;;;17.86;100.00;101366.03;5005204;28;20038;-75
2022/05/09 07:55:42;;;;;;;7.38;5.65;;;17.50;98.20;;;18.08;100.00;101372.34;5005216;28;20050;-76
2022/05/09 07:58:13;;;;;;;10.45;6.38;;;17.60;98.20;;;18.14;100.00;101372.09;5004748;28;20121;-76
2022/05/09 08:00:42;;;;;;;9.13;6.38;;;17.70;98.20;;;18.18;100.00;101362.19;5005052;28;20082;-79
2022/05/09 08:03:22;;;;;;;9.60;6.60;;;17.80;98.10;;;18.20;100.00;101363.88;4985272;28;20054;-79
2022/05/09 08:05:58;;;;;;;7.03;5.95;;;17.80;98.00;;;18.22;100.00;101363.81;4984754;28;20043;-79
2022/05/09 08:08:30;;;;;;;8.65;5.88;;;17.90;98.00;;;18.25;100.00;101361.03;4971041;28;20496;-78
2022/05/09 08:10:59;;;;;;;6.78;5.90;;;18.00;97.80;;;18.33;100.00;101366.03;4985462;28;20042;-79
2022/05/09 08:13:30;;;;;;;10.50;6.33;;;18.00;97.70;;;18.33;100.00;101361.56;4985751;28;20138;-79
2022/05/09 08:15:59;;;;;;;7.65;6.32;;;17.90;97.50;;;18.41;100.00;101366.56;4985854;28;20122;-79
2022/05/09 08:18:26;;;;;;;8.52;6.32;;;18.00;97.60;;;18.52;100.00;101364.34;4964894;28;20120;-80
2022/05/09 08:20:55;;;;;;;7.85;6.18;;;18.10;97.60;;;18.60;100.00;101363.16;4989853;28;20050;-79
2022/05/09 08:23:23;;;;;;;8.03;5.70;;;18.10;97.60;;;18.65;100.00;101367.34;4973450;28;20058;-80
2022/05/09 08:25:51;;;;;;;6.75;5.93;;;18.20;97.50;;;18.67;100.00;101353.97;4990192;28;20392;-79
2022/05/09 08:28:19;;;;;;;7.35;5.95;;;18.30;97.30;;;18.68;100.00;101356.59;4987872;28;20519;-76
2022/05/09 08:30:47;;;;;;;8.77;6.20;;;18.30;97.10;;;18.76;100.00;101358.91;4991796;28;20057;-78
2022/05/09 08:33:19;;;;;;;12.20;6.72;;;18.40;97.20;;;18.85;100.00;101363.84;4994485;28;20081;-79
2022/05/09 08:35:51;;;;;;;8.23;5.75;;;18.40;97.10;;;18.89;100.00;101364.56;5004465;28;20102;-78
2022/05/09 08:38:35;;;;;;;8.10;5.93;;;18.70;97.20;;;18.89;100.00;101355.69;4990306;28;20565;-78
2022/05/09 08:41:11;;;;;;;10.00;5.82;;;18.50;96.90;;;19.05;100.00;101358.59;4989467;28;20072;-78
2022/05/09 08:44:09;;;;;;;9.38;5.80;;;18.60;97.10;;;19.16;100.00;101361.69;4975163;28;20049;-78
2022/05/09 08:47:01;;;;;;;6.72;6.03;;;18.70;97.00;;;19.21;100.00;101365.00;4992090;28;20326;-78
2022/05/09 08:50:24;;;;;;;6.93;5.55;;;18.70;97.00;;;19.30;100.00;101354.88;4988878;28;20077;-76
2022/05/09 08:53:07;;;;;;;8.90;5.70;;;18.80;97.00;;;19.36;100.00;101362.56;4988402;28;20038;-77
2022/05/09 08:55:41;;;;;;;6.82;5.90;;;18.90;97.00;;;19.46;100.00;101355.91;4985724;28;20061;-77
2022/05/09 08:58:33;;;;;;;6.70;5.40;;;19.00;96.80;;;19.53;100.00;101359.16;4971155;28;20097;-77
2022/05/09 09:01:03;;;;;;;9.77;5.70;;;19.00;96.50;;;19.54;100.00;101350.19;5003196;28;20058;-77
2022/05/09 09:03:37;;;;;;;7.45;5.75;;;19.10;96.60;;;19.66;100.00;101349.59;5003658;28;20046;-77
2022/05/09 09:06:28;;;;;;;11.73;5.97;;;19.20;96.60;;;19.79;100.00;101357.94;5003316;28;20136;-77
2022/05/09 09:09:13;;;;;;;7.30;5.13;;;19.30;96.40;;;19.88;100.00;101351.28;5001113;28;20054;-77
2022/05/09 09:11:58;;;;;;;8.77;5.95;;;19.40;96.30;;;19.95;100.00;101349.22;4988524;28;20427;-77
2022/05/09 09:14:52;;;;;;;10.35;5.78;;;19.50;96.40;;;20.09;100.00;101353.88;4987451;28;20343;-77
2022/05/09 09:18:01;;;;;;;6.30;5.43;;;19.50;96.30;;;20.10;100.00;101350.28;4987226;28;20050;-78
2022/05/09 09:21:01;;;;;;;5.22;4.75;;;19.60;96.00;;;20.23;100.00;101353.22;4988908;28;20042;-77
2022/05/09 09:23:52;;;;;;;6.75;5.60;;;19.70;96.00;;;20.26;100.00;101353.06;4987322;28;20039;-77
2022/05/09 09:27:01;;;;;;;7.32;5.68;;;19.80;96.00;;;20.43;100.00;101349.53;4986669;28;20122;-77
2022/05/09 09:29:45;;;;;;;5.55;4.90;;;19.90;96.20;;;20.48;100.00;101354.66;4987173;28;20046;-78
2022/05/09 09:32:20;;;;;;;7.00;5.82;;;20.00;95.70;;;20.54;100.00;101351.69;5002575;28;20670;-77
2022/05/09 09:35:03;;;;;;;7.65;5.35;;;20.00;95.50;;;20.67;100.00;101355.44;4988080;28;20047;-77
2022/05/09 09:37:57;;;;;;;6.72;5.60;;;20.10;95.60;;;20.71;100.00;101347.31;5000119;28;20050;-77
2022/05/09 09:40:25;;;;;;;6.47;5.72;;;20.20;95.40;;;20.84;100.00;101351.09;4967956;28;20074;-78
2022/05/09 09:42:56;;;;;;;6.50;5.60;;;20.30;95.50;;;20.94;100.00;101351.50;4967305;28;20043;-77
2022/05/09 09:45:29;;;;;;;6.18;5.57;;;20.40;95.20;;;21.04;97.51;101352.72;4987801;28;20054;-75
2022/05/09 09:48:26;;;;;;;6.78;5.80;;;20.50;94.90;;;21.22;99.10;101350.88;4986198;28;20049;-74
2022/05/09 09:51:12;;;;;;;6.88;5.07;;;20.60;95.00;;;21.33;97.26;101342.28;5000888;28;20806;-75
2022/05/09 09:53:51;;;;;;;8.85;5.55;;;20.80;94.80;;;21.52;93.39;101347.50;4975131;28;20534;-77
2022/05/09 09:56:21;;;;;;;8.68;5.75;;;20.90;94.40;;;21.61;94.40;101339.88;4988493;28;20050;-76
2022/05/09 09:58:54;;;;;;;6.18;4.70;;;21.00;94.50;;;21.64;86.58;101335.25;4972924;28;20062;-78
2022/05/09 10:01:27;;;;;;;7.15;4.78;;;21.10;93.80;;;21.65;86.31;101336.13;4987467;28;20042;-74
2022/05/09 10:04:06;;;;;;;8.82;5.32;;;21.20;93.80;;;21.76;88.15;101327.50;4987133;28;20120;-74
2022/05/09 10:06:34;;;;;;;5.07;4.68;;;21.20;93.80;;;21.75;86.71;101340.03;4986946;28;20048;-73
2022/05/09 10:09:06;;;;;;;6.25;5.05;;;21.20;93.60;;;21.79;89.81;101328.22;4986154;28;20046;-73
2022/05/09 10:11:34;;;;;;;6.60;5.70;;;21.30;93.80;;;21.89;89.61;101327.66;4986700;28;20038;-73
2022/05/09 10:14:05;;;;;;;7.78;6.18;;;21.40;93.90;;;21.99;88.39;101328.00;4993022;28;20042;-73
2022/05/09 10:16:41;;;;;;;8.32;5.55;;;21.40;93.60;;;22.03;81.84;101318.88;4988150;28;20097;-72
2022/05/09 10:19:12;;;;;;;8.57;5.45;;;21.50;93.20;;;22.22;80.63;101315.97;4986117;28;20054;-74
2022/05/09 10:24:49;;;;;;;7.32;5.75;;;21.70;93.00;;;22.49;77.48;101305.47;4999867;28;20042;-74
2022/05/09 10:27:22;;;;;;;6.85;5.57;;;21.80;92.70;;;22.67;75.75;101303.50;4985573;28;20077;-73
2022/05/09 10:30:00;;;;;;;5.78;5.28;;;22.00;92.60;;;22.77;75.88;101303.78;4987009;28;20046;-72
2022/05/09 10:32:51;;;;;;;6.28;5.05;;;22.10;92.60;;;22.81;72.10;101307.16;4986745;28;20062;-72
2022/05/09 10:35:39;;;;;;;6.65;5.25;;;22.20;92.10;;;22.80;69.31;101306.31;4986148;28;20557;-74
2022/05/09 10:38:20;;;;;;;7.35;5.85;;;22.30;91.70;;;22.86;67.75;101301.50;4986665;28;20444;-74
2022/05/09 10:40:54;;;;;;;7.55;5.32;;;22.40;91.40;;;22.94;71.21;101305.44;4972703;28;20050;-74
2022/05/09 10:43:57;;;;;;;58.05;12.95;;;22.50;91.70;;;23.02;71.47;101296.03;5005566;28;20661;-74